Dexter, Kentucky
Current Conditions -  °F | °C
As of 2:15 PM on Monday 24 Nov 2014 (Local Time) from KCEY Reporting Station
Few Clouds Few Clouds  
Wind Chill: 50°   Ceiling: Unl
Heat Index: 50°   Visibility: 10mi
Dew Point: 32°   Wind: 18mph
Humidity: 50%   Direction: 240°WSW
Pressure: 29.81"   Gusts: 24mph
Location:  36.74°N, 88.3°W
Report Text: KCEY 242015Z AUTO 24016G21KT 10SM FEW045 10/00 A2981 RMK AO1
Loading
Personal Weather Stations






























Interactive Weather Map New forecast layout! Learn more

10-Day Weather Forecast

Advertisements
Track Severe Weather on mobile